Time;durP1;ratioP1;P1;durP2;ratioP2;P2;SDS_P1;SDS_P2;PMS_P1;PMS_P2;Temp;Humidity;BMP_temperature;BMP_pressure;BME280_temperature;BME280_humidity;BME280_pressure;Samples;Min_cycle;Max_cycle;Signal;HPM_P1;HPM_P2
2022/06/01 00:01:15;;;;;;;9.13;4.18;;;15.90;99.90;;;;;;5019171;28;20132;-72
2022/06/01 00:03:43;;;;;;;8.50;4.63;;;15.90;99.90;;;;;;5018802;28;20048;-71
2022/06/01 00:06:12;;;;;;;7.85;4.30;;;15.90;99.90;;;;;;5019940;28;20033;-72
2022/06/01 00:08:40;;;;;;;8.93;3.90;;;15.90;99.90;;;;;;5019442;28;20037;-72
2022/06/01 00:11:08;;;;;;;8.40;4.43;;;15.90;99.90;;;;;;5018976;28;20600;-72
2022/06/01 00:13:36;;;;;;;8.05;3.75;;;15.90;99.90;;;;;;5019797;28;20485;-72
2022/06/01 00:16:04;;;;;;;7.28;4.00;;;15.90;99.90;;;;;;5019569;28;20033;-71
2022/06/01 00:18:31;;;;;;;5.63;4.38;;;15.80;99.90;;;;;;5019487;28;20171;-72
2022/06/01 00:20:58;;;;;;;7.50;4.68;;;15.90;99.90;;;;;;5018826;28;20547;-71
2022/06/01 00:23:25;;;;;;;9.88;4.25;;;15.80;99.90;;;;;;5022000;28;20045;-72
2022/06/01 00:25:52;;;;;;;8.32;4.45;;;15.80;99.90;;;;;;5019916;28;20614;-71
2022/06/01 00:28:20;;;;;;;7.35;4.13;;;15.80;99.90;;;;;;5019784;28;20042;-72
2022/06/01 00:30:47;;;;;;;7.03;5.10;;;15.80;99.90;;;;;;5020370;28;20395;-72
2022/06/01 00:33:14;;;;;;;11.55;4.82;;;15.70;99.90;;;;;;5014679;28;20910;-71
2022/06/01 00:35:41;;;;;;;7.63;4.00;;;15.70;99.90;;;;;;5019004;28;20060;-72
2022/06/01 00:38:08;;;;;;;8.93;4.88;;;15.70;99.90;;;;;;5019758;28;20045;-72
2022/06/01 00:40:39;;;;;;;7.05;4.53;;;15.70;99.90;;;;;;5015050;28;20053;-72
2022/06/01 00:43:21;;;;;;;7.60;4.57;;;15.60;99.90;;;;;;5016723;28;20489;-71
2022/06/01 00:45:48;;;;;;;7.38;4.78;;;15.60;99.90;;;;;;5031987;28;20392;-72
2022/06/01 00:48:18;;;;;;;8.15;4.75;;;15.60;99.90;;;;;;5013185;28;20116;-72
2022/06/01 00:50:45;;;;;;;7.68;4.93;;;15.60;99.90;;;;;;5019039;28;20041;-72
2022/06/01 00:53:22;;;;;;;7.53;4.45;;;15.70;99.90;;;;;;5034378;28;20044;-71
2022/06/01 00:55:55;;;;;;;7.15;4.50;;;15.70;99.90;;;;;;5018517;28;20034;-72
2022/06/01 00:58:28;;;;;;;9.43;4.75;;;15.60;99.90;;;;;;5014486;28;20899;-72
2022/06/01 01:00:57;;;;;;;7.13;4.60;;;15.60;99.90;;;;;;5017604;28;20451;-72
2022/06/01 01:03:29;;;;;;;9.10;5.35;;;15.60;99.90;;;;;;5019444;28;20044;-71
2022/06/01 01:06:31;;;;;;;8.57;4.87;;;15.50;99.90;;;;;;5016940;28;20049;-72
2022/06/01 01:08:59;;;;;;;7.03;4.68;;;15.50;99.90;;;;;;5017986;28;20103;-72
2022/06/01 01:11:29;;;;;;;7.88;5.10;;;15.50;99.90;;;;;;5018907;28;20061;-72
2022/06/01 01:13:58;;;;;;;8.77;5.25;;;15.50;99.90;;;;;;5020058;28;20045;-72
2022/06/01 01:16:26;;;;;;;7.97;5.15;;;15.50;99.90;;;;;;5020372;28;20037;-72
2022/06/01 01:18:55;;;;;;;7.45;4.63;;;15.50;99.90;;;;;;5017013;28;20041;-72
2022/06/01 01:21:26;;;;;;;9.30;5.05;;;15.40;99.90;;;;;;5019241;28;20096;-72
2022/06/01 01:24:41;;;;;;;9.98;5.65;;;15.50;99.90;;;;;;5017285;28;20045;-72
2022/06/01 01:27:09;;;;;;;7.95;5.07;;;15.50;99.90;;;;;;4994288;28;20057;-72
2022/06/01 01:29:40;;;;;;;8.70;5.22;;;15.40;99.90;;;;;;5019168;28;20496;-72
2022/06/01 01:32:10;;;;;;;10.50;5.35;;;15.40;99.90;;;;;;5020388;28;20416;-71
2022/06/01 01:34:39;;;;;;;10.65;5.15;;;15.40;99.90;;;;;;5019106;28;20424;-72
2022/06/01 01:37:11;;;;;;;7.22;4.38;;;15.30;99.90;;;;;;5017069;28;20048;-72
2022/06/01 01:39:38;;;;;;;9.18;5.47;;;15.30;99.90;;;;;;5013545;28;20043;-71
2022/06/01 01:42:07;;;;;;;10.10;5.95;;;15.30;99.90;;;;;;5016234;28;20046;-72
2022/06/01 01:44:44;;;;;;;10.32;5.75;;;15.30;99.90;;;;;;5018450;28;20044;-72
2022/06/01 01:47:12;;;;;;;10.82;5.78;;;15.30;99.90;;;;;;5011376;28;20048;-71
2022/06/01 01:49:41;;;;;;;8.80;5.40;;;15.30;99.90;;;;;;5017219;28;20041;-72
2022/06/01 01:52:14;;;;;;;11.05;5.50;;;15.30;99.90;;;;;;5047548;28;20052;-72
2022/06/01 01:55:06;;;;;;;8.15;5.70;;;15.30;99.90;;;;;;5017777;28;20072;-72
2022/06/01 01:57:39;;;;;;;8.55;5.38;;;15.20;99.90;;;;;;5012700;28;20042;-72
2022/06/01 02:00:14;;;;;;;;;;;15.30;99.90;;;;;;5048834;28;20057;-72
2022/06/01 02:02:50;;;;;;;10.95;5.85;;;15.30;99.90;;;;;;5018599;28;20004;-71
2022/06/01 02:08:23;;;;;;;10.25;5.50;;;15.20;99.90;;;;;;5017418;28;20115;-72
2022/06/01 02:13:43;;;;;;;10.82;5.18;;;15.20;99.90;;;;;;5016493;28;20472;-72
2022/06/01 02:16:11;;;;;;;10.45;5.05;;;15.20;99.90;;;;;;5014959;28;20117;-72
2022/06/01 02:18:44;;;;;;;9.65;5.72;;;15.20;99.90;;;;;;5001023;28;20046;-72
2022/06/01 02:21:25;;;;;;;9.80;6.03;;;15.20;99.90;;;;;;5012558;28;20061;-72
2022/06/01 02:23:55;;;;;;;10.80;5.47;;;15.20;99.90;;;;;;5015692;28;20045;-72
2022/06/01 02:26:23;;;;;;;10.88;5.35;;;15.20;99.90;;;;;;5019015;28;20045;-72
2022/06/01 02:28:56;;;;;;;9.68;5.55;;;15.10;99.90;;;;;;5018485;28;20481;-71
2022/06/01 02:31:24;;;;;;;8.00;5.13;;;15.20;99.90;;;;;;5018002;28;20048;-71
2022/06/01 02:33:53;;;;;;;10.07;5.30;;;15.20;99.90;;;;;;5017028;28;20054;-72
2022/06/01 02:36:23;;;;;;;10.50;6.05;;;15.20;99.90;;;;;;5016807;28;20037;-71
2022/06/01 02:38:53;;;;;;;11.50;5.15;;;15.20;99.90;;;;;;5017259;28;20046;-71
2022/06/01 02:44:07;;;;;;;10.55;6.13;;;15.20;99.90;;;;;;5015575;28;20481;-71
2022/06/01 02:46:34;;;;;;;17.23;7.20;;;15.20;99.90;;;;;;5019525;28;20469;-72
2022/06/01 02:49:01;;;;;;;12.98;5.93;;;15.20;99.90;;;;;;5018195;28;20037;-71
2022/06/01 02:51:28;;;;;;;12.75;6.25;;;15.20;99.90;;;;;;5016992;28;20042;-71
2022/06/01 02:53:56;;;;;;;15.13;6.55;;;15.30;99.90;;;;;;5012469;28;20046;-72
2022/06/01 02:56:24;;;;;;;14.68;6.72;;;15.30;99.90;;;;;;5016999;28;20041;-71
2022/06/01 02:58:52;;;;;;;13.55;6.80;;;15.20;99.90;;;;;;5016498;28;20444;-71
2022/06/01 03:01:20;;;;;;;17.70;7.85;;;15.30;99.90;;;;;;5017914;28;20037;-71
2022/06/01 03:03:47;;;;;;;14.38;7.25;;;15.30;99.90;;;;;;5019266;28;20953;-72
2022/06/01 03:06:15;;;;;;;16.95;8.07;;;15.30;99.90;;;;;;5016950;28;20038;-71
2022/06/01 03:08:43;;;;;;;19.08;8.98;;;15.30;99.90;;;;;;5016521;28;20037;-71
2022/06/01 03:11:10;;;;;;;26.27;9.38;;;15.40;99.90;;;;;;5016040;28;20107;-71
2022/06/01 03:13:37;;;;;;;23.90;10.43;;;15.40;99.90;;;;;;5017625;28;20729;-72
2022/06/01 03:16:05;;;;;;;22.55;10.88;;;15.40;99.90;;;;;;5017955;28;20045;-72
2022/06/01 03:18:32;;;;;;;26.52;10.98;;;15.40;99.90;;;;;;5016606;28;20912;-72
2022/06/01 03:20:59;;;;;;;32.38;12.18;;;15.40;99.90;;;;;;5016914;28;20060;-72
2022/06/01 03:23:27;;;;;;;32.60;13.20;;;15.50;99.90;;;;;;5003796;28;20063;-72
2022/06/01 03:25:55;;;;;;;31.70;13.82;;;15.50;99.90;;;;;;5017375;28;20389;-72
2022/06/01 03:28:23;;;;;;;40.65;14.00;;;15.50;99.90;;;;;;5014810;28;20072;-72
2022/06/01 03:30:50;;;;;;;37.72;14.38;;;15.60;99.90;;;;;;5031795;28;20061;-72
2022/06/01 03:33:19;;;;;;;32.75;13.15;;;15.60;99.90;;;;;;5019387;28;20053;-71
2022/06/01 03:35:47;;;;;;;28.85;13.10;;;15.60;99.90;;;;;;5016368;28;20073;-72
2022/06/01 03:38:14;;;;;;;32.22;12.27;;;15.60;99.90;;;;;;5013596;28;20049;-72
2022/06/01 03:40:42;;;;;;;32.97;12.88;;;15.70;99.90;;;;;;5017321;28;20042;-71
2022/06/01 03:43:11;;;;;;;36.88;12.55;;;15.70;99.90;;;;;;5017254;28;20049;-72
2022/06/01 03:46:00;;;;;;;33.92;13.63;;;15.70;99.90;;;;;;5014962;28;20061;-72
2022/06/01 03:48:33;;;;;;;40.55;14.68;;;15.60;99.90;;;;;;5016846;28;20061;-72
2022/06/01 03:51:00;;;;;;;;;;;15.60;99.90;;;;;;5017341;28;20066;-72
2022/06/01 03:53:29;;;;;;;35.15;13.98;;;15.70;99.90;;;;;;5047414;28;19961;-72
2022/06/01 03:55:58;;;;;;;38.05;13.73;;;15.70;99.90;;;;;;5019112;28;20037;-72
2022/06/01 03:58:27;;;;;;;37.33;14.43;;;15.70;99.90;;;;;;5015450;28;20083;-72
2022/06/01 04:00:54;;;;;;;34.22;14.93;;;15.70;99.90;;;;;;5019739;28;20054;-72
2022/06/01 04:03:22;;;;;;;40.70;14.48;;;15.70;99.90;;;;;;5018236;28;20396;-71
2022/06/01 04:05:49;;;;;;;36.30;14.93;;;15.70;99.90;;;;;;5019901;28;20123;-71
2022/06/01 04:08:16;;;;;;;36.33;15.43;;;15.80;99.90;;;;;;5022609;28;20389;-71
2022/06/01 04:10:43;;;;;;;63.75;20.30;;;15.70;99.90;;;;;;5021322;28;20119;-70
2022/06/01 04:13:14;;;;;;;55.05;20.73;;;15.70;99.90;;;;;;5016506;28;20061;-69
2022/06/01 04:15:42;;;;;;;61.83;22.92;;;15.60;99.90;;;;;;5021512;28;20099;-68
2022/06/01 04:18:10;;;;;;;57.03;21.48;;;15.60;99.90;;;;;;5020877;28;20041;-69
2022/06/01 04:20:37;;;;;;;50.90;19.15;;;15.40;99.90;;;;;;5015700;28;20599;-69
2022/06/01 04:23:04;;;;;;;42.67;16.83;;;15.30;99.90;;;;;;5018593;28;20043;-69
2022/06/01 04:25:31;;;;;;;40.20;17.00;;;15.30;99.90;;;;;;5022109;28;20036;-70
2022/06/01 04:27:58;;;;;;;47.22;17.40;;;15.40;99.90;;;;;;5020274;28;20043;-71
2022/06/01 04:30:26;;;;;;;37.42;16.60;;;15.40;99.90;;;;;;5018041;28;20051;-71
2022/06/01 04:32:54;;;;;;;37.72;16.27;;;15.50;99.90;;;;;;5019435;28;20052;-71
2022/06/01 04:35:25;;;;;;;39.70;16.30;;;15.50;99.90;;;;;;5020581;28;20500;-71
2022/06/01 04:37:52;;;;;;;38.08;15.55;;;15.60;99.90;;;;;;5016985;28;20084;-71
2022/06/01 04:40:21;;;;;;;45.80;17.75;;;15.60;99.90;;;;;;5017675;28;20046;-71
2022/06/01 04:42:49;;;;;;;37.53;15.32;;;15.60;99.90;;;;;;5020322;28;20046;-72
2022/06/01 04:45:17;;;;;;;42.38;16.48;;;15.70;99.90;;;;;;5019577;28;20034;-72
2022/06/01 04:47:46;;;;;;;40.17;16.25;;;15.70;99.90;;;;;;5018147;28;20053;-72
2022/06/01 04:50:13;;;;;;;40.30;17.17;;;15.70;99.90;;;;;;5020610;28;20087;-72
2022/06/01 04:52:40;;;;;;;42.08;17.77;;;15.70;99.90;;;;;;5032579;28;20034;-72
2022/06/01 04:55:08;;;;;;;49.50;18.27;;;15.80;99.90;;;;;;5015966;28;20041;-71
2022/06/01 04:57:36;;;;;;;45.83;18.05;;;15.90;99.90;;;;;;5017505;28;20136;-72
2022/06/01 05:00:04;;;;;;;46.53;19.25;;;15.90;99.90;;;;;;5017724;28;20136;-72
2022/06/01 05:02:31;;;;;;;43.28;18.02;;;16.00;99.90;;;;;;4986639;28;20152;-72
2022/06/01 05:04:58;;;;;;;48.30;18.65;;;16.20;99.90;;;;;;5001011;28;20048;-72
2022/06/01 05:07:26;;;;;;;40.47;16.85;;;16.30;99.90;;;;;;4987575;28;20046;-73
2022/06/01 05:09:53;;;;;;;47.35;19.23;;;16.40;99.90;;;;;;4990921;28;20303;-72
2022/06/01 05:12:20;;;;;;;48.38;17.55;;;16.40;99.90;;;;;;4980399;28;20049;-73
2022/06/01 05:14:47;;;;;;;45.40;19.13;;;16.50;99.90;;;;;;4989444;28;22552;-72
2022/06/01 05:17:14;;;;;;;48.85;19.65;;;16.50;99.90;;;;;;4990999;28;20041;-72
2022/06/01 05:19:43;;;;;;;45.17;19.15;;;16.50;99.90;;;;;;4989985;28;20601;-72
2022/06/01 05:22:10;;;;;;;49.80;18.73;;;16.50;99.90;;;;;;4989570;28;22275;-73
2022/06/01 05:24:37;;;;;;;48.25;19.83;;;16.60;99.90;;;;;;4982713;28;20616;-73
2022/06/01 05:27:04;;;;;;;49.78;18.88;;;16.60;99.90;;;;;;4983642;28;20049;-73
2022/06/01 05:29:31;;;;;;;49.28;20.70;;;16.70;99.90;;;;;;4988520;28;20816;-73
2022/06/01 05:31:58;;;;;;;47.00;19.50;;;16.70;99.90;;;;;;4989571;28;20515;-72
2022/06/01 05:34:26;;;;;;;50.17;20.45;;;16.60;99.90;;;;;;4981443;28;20048;-73
2022/06/01 05:36:53;;;;;;;50.67;19.90;;;16.70;99.90;;;;;;4980774;28;20895;-73
2022/06/01 05:39:20;;;;;;;54.67;22.27;;;16.80;99.90;;;;;;4989909;28;22889;-73
2022/06/01 05:41:47;;;;;;;64.55;24.15;;;16.90;99.90;;;;;;4990242;28;20045;-73
2022/06/01 05:44:16;;;;;;;68.28;24.80;;;17.00;99.90;;;;;;4990051;28;20049;-73
2022/06/01 05:46:56;;;;;;;67.30;24.40;;;16.90;99.90;;;;;;4983927;28;20558;-72
2022/06/01 05:49:23;;;;;;;69.10;25.60;;;16.90;99.90;;;;;;4988464;28;20906;-73
2022/06/01 05:51:50;;;;;;;67.80;25.73;;;16.90;99.90;;;;;;5004304;28;20038;-73
2022/06/01 05:54:19;;;;;;;71.65;26.08;;;16.90;99.90;;;;;;5006605;28;20056;-73
2022/06/01 05:56:46;;;;;;;63.97;25.13;;;16.90;99.90;;;;;;4988771;28;20259;-73
2022/06/01 05:59:14;;;;;;;70.82;26.45;;;16.90;99.90;;;;;;4990745;28;20053;-73
2022/06/01 06:01:42;;;;;;;69.47;26.85;;;16.90;99.90;;;;;;4965296;28;20058;-73
2022/06/01 06:04:09;;;;;;;73.93;29.20;;;16.90;99.90;;;;;;4982277;28;20053;-73
2022/06/01 06:06:36;;;;;;;69.28;27.55;;;16.90;99.90;;;;;;4987989;28;20038;-73
2022/06/01 06:09:07;;;;;;;64.90;27.10;;;16.90;99.90;;;;;;4987973;28;20555;-74
2022/06/01 06:11:37;;;;;;;68.03;27.30;;;16.90;99.90;;;;;;4988378;28;20138;-72
2022/06/01 06:14:05;;;;;;;61.10;24.75;;;17.00;99.90;;;;;;4987489;28;20048;-73
2022/06/01 06:16:36;;;;;;;62.28;25.95;;;17.00;99.90;;;;;;4991722;28;20065;-73
2022/06/01 06:19:05;;;;;;;60.65;26.20;;;17.00;99.90;;;;;;4971733;28;20236;-73
2022/06/01 06:21:32;;;;;;;63.85;26.40;;;17.00;99.90;;;;;;5023292;28;20049;-72
2022/06/01 06:24:06;;;;;;;61.42;25.30;;;17.10;99.90;;;;;;4990642;28;20081;-72
2022/06/01 06:26:34;;;;;;;56.00;25.23;;;17.10;99.90;;;;;;4988541;28;20128;-72
2022/06/01 06:29:04;;;;;;;59.55;25.00;;;17.00;99.90;;;;;;4990903;28;20050;-73
2022/06/01 06:31:31;;;;;;;63.17;27.40;;;17.00;99.90;;;;;;4999669;28;20199;-72
2022/06/01 06:33:59;;;;;;;63.40;25.40;;;17.00;99.90;;;;;;4985264;28;20053;-72
2022/06/01 06:36:26;;;;;;;65.85;26.17;;;17.10;99.90;;;;;;4986992;28;20046;-72
2022/06/01 06:38:53;;;;;;;57.28;24.15;;;17.10;99.90;;;;;;5000400;28;20052;-71
2022/06/01 06:41:21;;;;;;;51.88;23.08;;;17.20;99.90;;;;;;4987295;28;20207;-72
2022/06/01 06:43:48;;;;;;;45.00;21.10;;;17.20;99.90;;;;;;5000244;28;20052;-72
2022/06/01 06:46:20;;;;;;;44.45;19.55;;;17.30;99.90;;;;;;4972882;28;20063;-72
2022/06/01 06:48:49;;;;;;;41.15;20.83;;;17.30;99.90;;;;;;4984946;28;20515;-72
2022/06/01 06:51:18;;;;;;;44.08;20.83;;;17.50;99.90;;;;;;4982931;28;20210;-71
2022/06/01 06:53:45;;;;;;;31.70;17.15;;;17.60;99.90;;;;;;4998566;28;20050;-71
2022/06/01 06:56:14;;;;;;;36.03;17.42;;;17.60;99.90;;;;;;4968500;28;21827;-71
2022/06/01 06:58:41;;;;;;;36.53;18.75;;;17.50;99.90;;;;;;4999802;28;20060;-71
2022/06/01 07:01:08;;;;;;;29.52;16.08;;;17.50;99.90;;;;;;4984209;28;20054;-72
2022/06/01 07:03:35;;;;;;;31.88;17.73;;;17.50;99.90;;;;;;4980092;28;20065;-71
2022/06/01 07:06:09;;;;;;;33.67;16.70;;;17.50;99.90;;;;;;4978725;28;22671;-71
2022/06/01 07:08:40;;;;;;;33.15;16.77;;;17.50;99.90;;;;;;4984675;28;20049;-71
2022/06/01 07:11:08;;;;;;;31.35;16.52;;;17.40;99.90;;;;;;4968481;28;20042;-71
2022/06/01 07:13:36;;;;;;;31.73;16.15;;;17.40;99.90;;;;;;4975845;28;20052;-72
2022/06/01 07:16:19;;;;;;;27.15;14.68;;;17.40;99.90;;;;;;4997299;28;20275;-73
2022/06/01 07:18:49;;;;;;;24.55;12.23;;;17.40;99.90;;;;;;4966025;28;20056;-72
2022/06/01 07:21:18;;;;;;;23.45;12.18;;;17.40;99.90;;;;;;4984050;28;20107;-72
2022/06/01 07:23:48;;;;;;;24.85;12.50;;;17.50;99.90;;;;;;4977034;28;22467;-71
2022/06/01 07:26:20;;;;;;;22.67;11.40;;;17.70;99.90;;;;;;4999167;28;20060;-71
2022/06/01 07:28:47;;;;;;;20.55;10.95;;;17.80;99.90;;;;;;4980863;28;20933;-72
2022/06/01 07:31:15;;;;;;;21.20;11.40;;;18.00;99.90;;;;;;4979943;28;20046;-71
2022/06/01 07:33:43;;;;;;;16.65;9.27;;;18.10;99.90;;;;;;4981564;28;20037;-71
2022/06/01 07:36:13;;;;;;;16.38;8.38;;;18.60;99.90;;;;;;4985973;28;20091;-71
2022/06/01 07:44:38;;;;;;;12.82;7.97;;;19.10;99.90;;;;;;4985237;28;20128;-71
2022/06/01 07:47:09;;;;;;;14.35;8.25;;;19.30;99.90;;;;;;4980285;28;20143;-72
2022/06/01 07:49:56;;;;;;;17.38;8.65;;;19.70;99.90;;;;;;4985200;28;22506;-71
2022/06/01 07:52:44;;;;;;;12.35;7.22;;;19.40;99.90;;;;;;4979909;28;20076;-71
2022/06/01 07:55:11;;;;;;;13.10;6.57;;;19.30;99.90;;;;;;4977156;28;21401;-71
2022/06/01 07:57:38;;;;;;;12.70;6.78;;;19.20;99.90;;;;;;4984079;28;20524;-71
2022/06/01 08:00:08;;;;;;;15.32;7.55;;;19.20;99.90;;;;;;4983706;28;20124;-72
2022/06/01 08:02:39;;;;;;;11.45;6.72;;;19.00;99.90;;;;;;4998850;28;20045;-72
2022/06/01 08:05:08;;;;;;;15.20;7.45;;;18.90;99.90;;;;;;4984748;28;20052;-73
2022/06/01 08:07:35;;;;;;;11.65;6.68;;;19.20;99.90;;;;;;5001233;28;22498;-72
2022/06/01 08:10:03;;;;;;;15.18;7.05;;;19.50;99.90;;;;;;4984319;28;22512;-72
2022/06/01 08:15:17;;;;;;;11.70;6.65;;;19.60;99.90;;;;;;4977212;28;20053;-73
2022/06/01 08:17:57;;;;;;;13.07;7.88;;;19.90;99.90;;;;;;5000121;28;20135;-73
2022/06/01 08:20:26;;;;;;;13.98;7.65;;;20.30;99.90;;;;;;4983918;28;20089;-72
2022/06/01 08:22:54;;;;;;;11.98;7.10;;;20.20;99.90;;;;;;4977619;28;21014;-74
2022/06/01 08:25:23;;;;;;;13.38;7.25;;;20.10;99.90;;;;;;4984841;28;20049;-72
2022/06/01 08:27:50;;;;;;;11.60;6.43;;;20.00;99.90;;;;;;4986684;28;20041;-73
2022/06/01 08:30:21;;;;;;;12.95;6.35;;;20.40;99.90;;;;;;4987001;28;20041;-72
2022/06/01 08:32:49;;;;;;;13.23;6.75;;;20.40;99.90;;;;;;4984869;28;22428;-73
2022/06/01 08:35:19;;;;;;;11.98;6.82;;;20.70;99.90;;;;;;4983304;28;20049;-72
2022/06/01 08:37:47;;;;;;;12.13;7.65;;;20.60;99.90;;;;;;4983029;28;20081;-73
2022/06/01 08:40:18;;;;;;;15.38;7.95;;;20.60;99.90;;;;;;5001292;28;20060;-72
2022/06/01 08:42:52;;;;;;;13.45;7.93;;;20.80;99.90;;;;;;4984811;28;20701;-72
2022/06/01 08:45:22;;;;;;;12.73;7.80;;;20.60;99.90;;;;;;4998285;28;20085;-72
2022/06/01 08:47:50;;;;;;;14.93;7.90;;;20.60;99.90;;;;;;4984557;28;22480;-72
2022/06/01 08:50:33;;;;;;;13.52;7.70;;;20.20;99.90;;;;;;4985906;28;20057;-72
2022/06/01 08:53:03;;;;;;;13.65;7.47;;;20.30;99.90;;;;;;4968675;28;20512;-72
2022/06/01 08:55:56;;;;;;;11.50;7.30;;;20.70;99.90;;;;;;4985571;28;20048;-72
2022/06/01 08:58:31;;;;;;;12.13;6.30;;;21.00;99.90;;;;;;4984243;28;20041;-72
2022/06/01 09:01:10;;;;;;;12.75;6.50;;;20.80;99.90;;;;;;4985754;28;20123;-72
2022/06/01 09:04:00;;;;;;;11.35;6.97;;;20.70;99.90;;;;;;4975648;28;20064;-73
2022/06/01 09:06:37;;;;;;;9.25;6.00;;;21.10;99.90;;;;;;4981329;28;22574;-72
2022/06/01 09:09:31;;;;;;;12.27;5.82;;;21.20;98.50;;;;;;4972325;28;20057;-72
2022/06/01 09:11:59;;;;;;;8.52;4.95;;;21.40;99.90;;;;;;4987132;28;20891;-72
2022/06/01 09:14:34;;;;;;;8.52;4.45;;;21.40;96.10;;;;;;5002627;28;20057;-72
2022/06/01 09:17:02;;;;;;;6.10;3.72;;;21.50;94.50;;;;;;4981283;28;20673;-73
2022/06/01 09:22:37;;;;;;;6.50;3.47;;;21.60;96.10;;;;;;4982975;28;20050;-73
2022/06/01 09:22:37;;;;;;;7.75;3.53;;;21.60;93.60;;;;;;4976586;28;20751;-72
2022/06/01 09:25:18;;;;;;;6.22;3.88;;;21.60;96.00;;;;;;4982626;28;20064;-72
2022/06/01 09:27:51;;;;;;;7.50;3.28;;;21.60;94.50;;;;;;4983297;28;21869;-72
2022/06/01 09:30:35;;;;;;;6.82;4.50;;;21.70;94.10;;;;;;4980486;28;20108;-72
2022/06/01 09:33:05;;;;;;;5.35;3.58;;;21.80;97.30;;;;;;4985509;28;20048;-72
2022/06/01 09:35:39;;;;;;;5.47;3.22;;;21.40;94.80;;;;;;4981210;28;20114;-72
2022/06/01 09:38:31;;;;;;;5.57;2.90;;;21.40;93.10;;;;;;4984119;28;20057;-72
2022/06/01 09:41:09;;;;;;;4.18;2.35;;;21.40;94.10;;;;;;5000878;28;20492;-72
2022/06/01 09:43:40;;;;;;;4.05;2.33;;;21.80;92.50;;;;;;5013855;28;20106;-72
2022/06/01 09:46:08;;;;;;;4.93;2.88;;;21.80;93.30;;;;;;4980858;28;20050;-72
2022/06/01 09:48:38;;;;;;;3.83;2.50;;;21.70;91.00;;;;;;4982441;28;20053;-72
2022/06/01 09:51:08;;;;;;;2.50;1.90;;;21.80;92.20;;;;;;4983776;28;20041;-73
2022/06/01 09:53:51;;;;;;;3.83;2.30;;;21.90;89.50;;;;;;4984632;28;20501;-73
2022/06/01 09:56:33;;;;;;;3.42;2.13;;;22.10;91.30;;;;;;4975914;28;20053;-71
2022/06/01 10:07:28;;;;;;;3.22;1.98;;;22.40;90.00;;;;;;4986302;28;20072;-71
2022/06/01 10:10:01;;;;;;;3.80;2.08;;;22.10;87.90;;;;;;5001073;28;20049;-72
2022/06/01 10:12:32;;;;;;;3.42;1.50;;;22.10;90.00;;;;;;4979217;28;20064;-72
2022/06/01 10:15:03;;;;;;;2.97;1.83;;;22.30;84.80;;;;;;4982776;28;20549;-72
2022/06/01 10:17:35;;;;;;;4.07;2.20;;;22.50;85.80;;;;;;4978766;28;21185;-71
2022/06/01 10:20:31;;;;;;;3.38;2.38;;;22.50;83.30;;;;;;4982058;28;20082;-71
2022/06/01 10:23:24;;;;;;;4.63;1.92;;;22.60;85.00;;;;;;4998485;28;20060;-72
2022/06/01 10:25:58;;;;;;;5.65;1.77;;;22.50;81.90;;;;;;5000418;28;20171;-71
2022/06/01 10:28:31;;;;;;;2.40;1.20;;;22.50;80.10;;;;;;4982712;28;20103;-72
2022/06/01 10:31:24;;;;;;;3.17;1.35;;;22.60;81.40;;;;;;4974036;28;20838;-73
2022/06/01 10:34:02;;;;;;;2.38;1.58;;;22.60;79.20;;;;;;4974413;28;20045;-72
2022/06/01 10:37:10;;;;;;;2.13;1.55;;;22.60;78.30;;;;;;4959922;28;20053;-71
2022/06/01 10:39:49;;;;;;;2.58;1.40;;;22.70;81.10;;;;;;4946451;28;20053;-71
2022/06/01 10:45:22;;;;;;;2.95;1.90;;;22.90;78.60;;;;;;4997619;28;20118;-72
2022/06/01 10:47:54;;;;;;;2.85;1.42;;;23.00;81.60;;;;;;4977064;28;22375;-72
2022/06/01 10:50:37;;;;;;;4.18;2.28;;;23.00;81.10;;;;;;4959204;28;22357;-72
2022/06/01 10:53:22;;;;;;;;;;;23.00;83.00;;;;;;4976596;28;20135;-72
2022/06/01 10:55:50;;;;;;;3.00;1.70;;;23.10;83.70;;;;;;4971361;28;19929;-71
2022/06/01 10:58:22;;;;;;;4.85;2.00;;;23.10;79.80;;;;;;4994271;28;20045;-73
2022/06/01 11:01:01;;;;;;;2.85;2.05;;;23.20;78.60;;;;;;4960768;28;20085;-71
2022/06/01 11:04:12;;;;;;;2.30;1.48;;;23.00;79.90;;;;;;4978875;28;22553;-72
2022/06/01 11:06:52;;;;;;;2.10;1.30;;;23.00;78.60;;;;;;4981533;28;20041;-72
2022/06/01 11:09:48;;;;;;;2.55;1.40;;;23.10;76.00;;;;;;4980221;28;21186;-72
2022/06/01 11:12:37;;;;;;;4.90;1.60;;;23.00;77.20;;;;;;4979447;28;20062;-71
2022/06/01 11:15:13;;;;;;;2.88;1.65;;;23.10;76.20;;;;;;4970798;28;20075;-71
2022/06/01 11:17:50;;;;;;;2.80;1.60;;;22.60;77.70;;;;;;4992404;28;20057;-71
2022/06/01 11:21:09;;;;;;;2.30;1.50;;;22.80;75.00;;;;;;4977642;28;20050;-70
2022/06/01 11:24:19;;;;;;;2.67;1.55;;;23.00;75.80;;;;;;4949115;28;20728;-71
2022/06/01 11:27:23;;;;;;;2.35;1.40;;;23.20;79.10;;;;;;5000438;28;20045;-71
2022/06/01 11:30:02;;;;;;;1.55;1.00;;;23.50;78.00;;;;;;4977078;28;20053;-70
2022/06/01 11:32:55;;;;;;;3.60;1.65;;;23.60;77.90;;;;;;4978295;28;22367;-71
2022/06/01 11:35:29;;;;;;;1.65;1.52;;;23.60;77.40;;;;;;4974630;28;20565;-71
2022/06/01 11:38:10;;;;;;;4.45;1.90;;;23.80;75.20;;;;;;4981454;28;22551;-71
2022/06/01 11:40:50;;;;;;;2.30;1.52;;;23.90;76.20;;;;;;4979042;28;20056;-71
2022/06/01 11:43:46;;;;;;;3.67;1.70;;;23.90;77.00;;;;;;4972859;28;21050;-73
2022/06/01 11:46:23;;;;;;;1.83;1.02;;;23.80;71.50;;;;;;4995567;28;21339;-72
2022/06/01 11:48:57;;;;;;;1.40;1.00;;;23.80;69.00;;;;;;4981302;28;20049;-71
2022/06/01 11:51:37;;;;;;;3.47;1.30;;;23.70;66.80;;;;;;4979564;28;20119;-73
2022/06/01 11:54:05;;;;;;;3.03;1.10;;;23.70;69.70;;;;;;4978542;28;20049;-72
2022/06/01 11:56:45;;;;;;;3.28;1.10;;;23.70;70.30;;;;;;4991285;28;20049;-73
2022/06/01 11:59:23;;;;;;;1.20;0.80;;;23.70;70.70;;;;;;4977413;28;20045;-73
2022/06/01 12:02:40;;;;;;;2.78;1.13;;;23.90;70.00;;;;;;4979499;28;20076;-71
2022/06/01 12:05:13;;;;;;;1.45;0.90;;;24.00;71.30;;;;;;4977355;28;20049;-72
2022/06/01 12:07:46;;;;;;;1.88;0.93;;;23.90;67.40;;;;;;4974132;28;20046;-72
2022/06/01 12:10:32;;;;;;;5.05;0.85;;;23.80;67.60;;;;;;4979696;28;20159;-72
2022/06/01 12:13:03;;;;;;;3.05;0.90;;;23.80;65.40;;;;;;4977782;28;20054;-72
2022/06/01 12:15:32;;;;;;;;;;;23.90;67.60;;;;;;4979197;28;20693;-72
2022/06/01 12:18:00;;;;;;;0.90;0.68;;;24.00;68.10;;;;;;5010319;28;19959;-72
2022/06/01 12:20:32;;;;;;;4.40;0.90;;;23.90;67.10;;;;;;4979923;28;20075;-72
2022/06/01 12:28:51;;;;;;;2.33;0.90;;;23.10;68.60;;;;;;4987605;28;20061;-72
2022/06/01 12:31:33;;;;;;;2.22;0.80;;;22.90;68.40;;;;;;4996269;28;20716;-72
2022/06/01 12:34:03;;;;;;;1.00;0.90;;;23.20;67.20;;;;;;4983951;28;20045;-72
2022/06/01 12:37:09;;;;;;;1.38;0.90;;;23.50;66.90;;;;;;4984723;28;20053;-73
2022/06/01 12:40:00;;;;;;;1.77;1.00;;;23.60;65.50;;;;;;4973983;28;22464;-72
2022/06/01 12:42:55;;;;;;;2.97;0.82;;;23.70;68.90;;;;;;4980546;28;20747;-71
2022/06/01 12:45:39;;;;;;;1.50;0.80;;;23.80;69.30;;;;;;4996025;28;20307;-71
2022/06/01 12:48:16;;;;;;;1.40;1.05;;;24.00;69.90;;;;;;4980120;28;20050;-72
2022/06/01 12:51:02;;;;;;;1.60;1.00;;;24.10;64.20;;;;;;4994160;28;20053;-72
2022/06/01 12:53:44;;;;;;;1.85;1.10;;;24.30;64.00;;;;;;4980424;28;20097;-73
2022/06/01 12:56:17;;;;;;;0.98;0.60;;;24.10;63.10;;;;;;4981705;28;20049;-72
2022/06/01 12:58:48;;;;;;;2.38;0.47;;;24.30;64.80;;;;;;4984689;28;20347;-72
2022/06/01 13:01:28;;;;;;;0.68;0.32;;;24.20;63.50;;;;;;4979571;28;20053;-72
2022/06/01 13:04:00;;;;;;;1.13;0.70;;;24.50;61.90;;;;;;4981684;28;20053;-72
2022/06/01 13:06:28;;;;;;;1.75;0.50;;;24.60;59.90;;;;;;4981202;28;20409;-73
2022/06/01 13:09:01;;;;;;;1.08;0.50;;;24.60;59.60;;;;;;4982964;28;20046;-71
2022/06/01 13:11:31;;;;;;;0.75;0.57;;;24.40;58.30;;;;;;4983271;28;20168;-72
2022/06/01 13:14:01;;;;;;;2.72;0.60;;;24.00;58.70;;;;;;4982383;28;20049;-72
2022/06/01 13:16:46;;;;;;;2.47;0.50;;;24.00;57.90;;;;;;4977624;28;20064;-72
2022/06/01 13:19:44;;;;;;;2.05;0.40;;;24.10;58.40;;;;;;4983597;28;20696;-72
2022/06/01 13:22:21;;;;;;;2.30;0.50;;;24.20;57.10;;;;;;4972407;28;20061;-72
2022/06/01 13:24:59;;;;;;;0.90;0.40;;;24.30;56.60;;;;;;4974505;28;20050;-72
2022/06/01 13:27:29;;;;;;;1.05;0.73;;;24.20;58.20;;;;;;4979524;28;20053;-72
2022/06/01 13:30:00;;;;;;;2.40;0.55;;;24.40;59.40;;;;;;4982165;28;20156;-72
2022/06/01 13:32:40;;;;;;;1.92;0.73;;;24.70;56.40;;;;;;4973402;28;22523;-72
2022/06/01 13:35:33;;;;;;;0.82;0.45;;;24.60;58.40;;;;;;4982480;28;20053;-71
2022/06/01 13:38:01;;;;;;;0.73;0.30;;;24.60;53.90;;;;;;4954522;28;20436;-73
2022/06/01 13:40:34;;;;;;;1.75;0.50;;;24.70;53.60;;;;;;4980556;28;20314;-71
2022/06/01 13:43:04;;;;;;;0.50;0.30;;;24.80;54.20;;;;;;4980188;28;20708;-73